sensor_id;sensor_type;location;lat;lon;timestamp;P1;durP1;ratioP1;P2;durP2;ratioP2
51901;SDS011;37929;53.218;6.548;2022-10-31T00:01:46;11.68;;;6.85;;
51901;SDS011;37929;53.218;6.548;2022-10-31T00:04:12;12.60;;;7.53;;
51901;SDS011;37929;53.218;6.548;2022-10-31T00:06:38;14.55;;;7.55;;
51901;SDS011;37929;53.218;6.548;2022-10-31T00:09:04;13.40;;;7.45;;
51901;SDS011;37929;53.218;6.548;2022-10-31T00:11:30;15.43;;;8.38;;
51901;SDS011;37929;53.218;6.548;2022-10-31T00:13:59;15.05;;;7.95;;
51901;SDS011;37929;53.218;6.548;2022-10-31T00:16:26;15.25;;;8.00;;
51901;SDS011;37929;53.218;6.548;2022-10-31T00:18:54;14.68;;;8.50;;
51901;SDS011;37929;53.218;6.548;2022-10-31T00:21:24;14.65;;;9.07;;
51901;SDS011;37929;53.218;6.548;2022-10-31T00:23:50;14.43;;;8.00;;
51901;SDS011;37929;53.218;6.548;2022-10-31T00:26:16;12.90;;;7.65;;
51901;SDS011;37929;53.218;6.548;2022-10-31T00:28:45;16.55;;;8.93;;
51901;SDS011;37929;53.218;6.548;2022-10-31T00:31:12;16.10;;;9.18;;
51901;SDS011;37929;53.218;6.548;2022-10-31T00:33:39;16.38;;;8.45;;
51901;SDS011;37929;53.218;6.548;2022-10-31T00:36:11;13.75;;;8.75;;
51901;SDS011;37929;53.218;6.548;2022-10-31T00:38:42;15.32;;;8.85;;
51901;SDS011;37929;53.218;6.548;2022-10-31T00:41:09;16.95;;;9.13;;
51901;SDS011;37929;53.218;6.548;2022-10-31T00:43:36;16.35;;;9.10;;
51901;SDS011;37929;53.218;6.548;2022-10-31T00:46:02;14.45;;;8.50;;
51901;SDS011;37929;53.218;6.548;2022-10-31T00:48:28;16.23;;;9.00;;
51901;SDS011;37929;53.218;6.548;2022-10-31T00:50:54;14.77;;;8.80;;
51901;SDS011;37929;53.218;6.548;2022-10-31T00:53:19;15.38;;;9.77;;
51901;SDS011;37929;53.218;6.548;2022-10-31T00:55:45;17.38;;;9.50;;
51901;SDS011;37929;53.218;6.548;2022-10-31T00:58:11;14.73;;;8.80;;
51901;SDS011;37929;53.218;6.548;2022-10-31T01:00:37;18.63;;;8.95;;
51901;SDS011;37929;53.218;6.548;2022-10-31T01:03:03;16.98;;;9.30;;
51901;SDS011;37929;53.218;6.548;2022-10-31T01:05:29;14.98;;;9.15;;
51901;SDS011;37929;53.218;6.548;2022-10-31T01:07:55;15.40;;;9.30;;
51901;SDS011;37929;53.218;6.548;2022-10-31T01:10:21;17.38;;;9.25;;
51901;SDS011;37929;53.218;6.548;2022-10-31T01:12:47;17.58;;;10.10;;
51901;SDS011;37929;53.218;6.548;2022-10-31T01:15:16;16.83;;;8.80;;
51901;SDS011;37929;53.218;6.548;2022-10-31T01:17:44;15.35;;;8.88;;
51901;SDS011;37929;53.218;6.548;2022-10-31T01:20:10;17.30;;;8.93;;
51901;SDS011;37929;53.218;6.548;2022-10-31T01:22:37;14.82;;;9.82;;
51901;SDS011;37929;53.218;6.548;2022-10-31T01:25:03;15.00;;;8.70;;
51901;SDS011;37929;53.218;6.548;2022-10-31T01:27:30;15.40;;;9.20;;
51901;SDS011;37929;53.218;6.548;2022-10-31T01:29:56;16.10;;;7.78;;
51901;SDS011;37929;53.218;6.548;2022-10-31T01:32:22;14.32;;;8.68;;
51901;SDS011;37929;53.218;6.548;2022-10-31T01:34:48;15.52;;;8.70;;
51901;SDS011;37929;53.218;6.548;2022-10-31T01:37:14;16.05;;;9.88;;
51901;SDS011;37929;53.218;6.548;2022-10-31T01:39:40;16.00;;;8.38;;
51901;SDS011;37929;53.218;6.548;2022-10-31T01:42:06;15.48;;;8.75;;
51901;SDS011;37929;53.218;6.548;2022-10-31T01:47:05;13.25;;;7.35;;
51901;SDS011;37929;53.218;6.548;2022-10-31T01:49:45;13.52;;;7.80;;
51901;SDS011;37929;53.218;6.548;2022-10-31T01:55:35;22.05;;;8.65;;
51901;SDS011;37929;53.218;6.548;2022-10-31T01:57:46;18.33;;;8.82;;
51901;SDS011;37929;53.218;6.548;2022-10-31T02:00:15;16.63;;;7.90;;
51901;SDS011;37929;53.218;6.548;2022-10-31T02:02:42;13.30;;;8.02;;
51901;SDS011;37929;53.218;6.548;2022-10-31T02:05:12;13.25;;;7.47;;
51901;SDS011;37929;53.218;6.548;2022-10-31T02:07:43;16.13;;;8.05;;
51901;SDS011;37929;53.218;6.548;2022-10-31T02:10:16;14.27;;;7.95;;
51901;SDS011;37929;53.218;6.548;2022-10-31T02:12:42;16.95;;;8.13;;
51901;SDS011;37929;53.218;6.548;2022-10-31T02:15:09;12.80;;;8.60;;
51901;SDS011;37929;53.218;6.548;2022-10-31T02:17:35;12.20;;;7.05;;
51901;SDS011;37929;53.218;6.548;2022-10-31T02:28:34;13.13;;;7.10;;
51901;SDS011;37929;53.218;6.548;2022-10-31T02:39:23;15.80;;;8.27;;
51901;SDS011;37929;53.218;6.548;2022-10-31T02:42:01;16.23;;;9.02;;
51901;SDS011;37929;53.218;6.548;2022-10-31T02:44:41;15.43;;;8.18;;
51901;SDS011;37929;53.218;6.548;2022-10-31T02:47:18;12.68;;;7.68;;
51901;SDS011;37929;53.218;6.548;2022-10-31T02:49:59;14.77;;;8.45;;
51901;SDS011;37929;53.218;6.548;2022-10-31T02:52:29;15.38;;;9.00;;
51901;SDS011;37929;53.218;6.548;2022-10-31T02:54:57;16.58;;;8.65;;
51901;SDS011;37929;53.218;6.548;2022-10-31T02:57:27;16.42;;;8.43;;
51901;SDS011;37929;53.218;6.548;2022-10-31T02:59:57;17.77;;;8.68;;
51901;SDS011;37929;53.218;6.548;2022-10-31T03:05:22;16.67;;;8.25;;
51901;SDS011;37929;53.218;6.548;2022-10-31T03:08:03;16.85;;;9.05;;
51901;SDS011;37929;53.218;6.548;2022-10-31T03:13:33;15.70;;;8.68;;
51901;SDS011;37929;53.218;6.548;2022-10-31T03:24:10;16.00;;;8.85;;
51901;SDS011;37929;53.218;6.548;2022-10-31T03:26:39;15.60;;;8.57;;
51901;SDS011;37929;53.218;6.548;2022-10-31T03:29:10;17.30;;;7.90;;
51901;SDS011;37929;53.218;6.548;2022-10-31T03:31:53;15.63;;;8.02;;
51901;SDS011;37929;53.218;6.548;2022-10-31T03:34:22;16.42;;;8.20;;
51901;SDS011;37929;53.218;6.548;2022-10-31T03:36:49;15.25;;;7.65;;
51901;SDS011;37929;53.218;6.548;2022-10-31T03:39:18;14.30;;;8.65;;
51901;SDS011;37929;53.218;6.548;2022-10-31T03:42:02;17.23;;;9.18;;
51901;SDS011;37929;53.218;6.548;2022-10-31T03:44:34;14.40;;;7.95;;
51901;SDS011;37929;53.218;6.548;2022-10-31T03:47:02;15.93;;;8.43;;
51901;SDS011;37929;53.218;6.548;2022-10-31T03:49:29;14.57;;;8.10;;
51901;SDS011;37929;53.218;6.548;2022-10-31T03:52:31;16.15;;;8.93;;
51901;SDS011;37929;53.218;6.548;2022-10-31T03:54:52;15.30;;;8.38;;
51901;SDS011;37929;53.218;6.548;2022-10-31T03:57:39;14.13;;;8.02;;
51901;SDS011;37929;53.218;6.548;2022-10-31T04:00:16;14.35;;;7.85;;
51901;SDS011;37929;53.218;6.548;2022-10-31T04:02:45;14.27;;;7.65;;
51901;SDS011;37929;53.218;6.548;2022-10-31T04:05:16;11.88;;;7.03;;
51901;SDS011;37929;53.218;6.548;2022-10-31T04:07:44;13.55;;;7.55;;
51901;SDS011;37929;53.218;6.548;2022-10-31T04:10:12;16.50;;;9.13;;
51901;SDS011;37929;53.218;6.548;2022-10-31T04:12:41;12.18;;;7.57;;
51901;SDS011;37929;53.218;6.548;2022-10-31T04:15:12;13.88;;;7.88;;
51901;SDS011;37929;53.218;6.548;2022-10-31T04:17:38;12.02;;;7.00;;
51901;SDS011;37929;53.218;6.548;2022-10-31T04:20:07;13.80;;;7.80;;
51901;SDS011;37929;53.218;6.548;2022-10-31T04:22:33;16.90;;;7.40;;
51901;SDS011;37929;53.218;6.548;2022-10-31T04:24:59;16.45;;;8.68;;
51901;SDS011;37929;53.218;6.548;2022-10-31T04:27:24;12.07;;;7.32;;
51901;SDS011;37929;53.218;6.548;2022-10-31T04:29:50;14.00;;;7.57;;
51901;SDS011;37929;53.218;6.548;2022-10-31T04:32:16;10.77;;;7.07;;
51901;SDS011;37929;53.218;6.548;2022-10-31T04:34:41;13.13;;;7.28;;
51901;SDS011;37929;53.218;6.548;2022-10-31T04:37:07;18.17;;;8.02;;
51901;SDS011;37929;53.218;6.548;2022-10-31T04:39:33;13.82;;;7.68;;
51901;SDS011;37929;53.218;6.548;2022-10-31T04:41:58;14.25;;;7.82;;
51901;SDS011;37929;53.218;6.548;2022-10-31T04:44:24;12.90;;;8.05;;
51901;SDS011;37929;53.218;6.548;2022-10-31T04:46:50;13.77;;;8.13;;
51901;SDS011;37929;53.218;6.548;2022-10-31T04:49:15;12.15;;;7.47;;
51901;SDS011;37929;53.218;6.548;2022-10-31T04:51:41;13.35;;;7.75;;
51901;SDS011;37929;53.218;6.548;2022-10-31T04:54:07;14.88;;;7.78;;
51901;SDS011;37929;53.218;6.548;2022-10-31T04:56:32;13.52;;;8.15;;
51901;SDS011;37929;53.218;6.548;2022-10-31T04:58:58;14.95;;;7.97;;
51901;SDS011;37929;53.218;6.548;2022-10-31T05:01:24;13.98;;;8.45;;
51901;SDS011;37929;53.218;6.548;2022-10-31T05:03:49;14.55;;;8.90;;
51901;SDS011;37929;53.218;6.548;2022-10-31T05:06:15;13.30;;;7.55;;
51901;SDS011;37929;53.218;6.548;2022-10-31T05:08:41;16.58;;;8.68;;
51901;SDS011;37929;53.218;6.548;2022-10-31T05:11:07;15.80;;;8.23;;
51901;SDS011;37929;53.218;6.548;2022-10-31T05:13:33;15.20;;;8.00;;
51901;SDS011;37929;53.218;6.548;2022-10-31T05:15:58;16.77;;;7.85;;
51901;SDS011;37929;53.218;6.548;2022-10-31T05:18:24;16.63;;;8.02;;
51901;SDS011;37929;53.218;6.548;2022-10-31T05:20:50;13.88;;;7.97;;
51901;SDS011;37929;53.218;6.548;2022-10-31T05:23:16;13.73;;;8.52;;
51901;SDS011;37929;53.218;6.548;2022-10-31T05:25:41;15.10;;;8.40;;
51901;SDS011;37929;53.218;6.548;2022-10-31T05:28:07;15.88;;;9.73;;
51901;SDS011;37929;53.218;6.548;2022-10-31T05:30:33;16.95;;;8.60;;
51901;SDS011;37929;53.218;6.548;2022-10-31T05:33:00;16.15;;;8.48;;
51901;SDS011;37929;53.218;6.548;2022-10-31T05:35:27;16.23;;;7.70;;
51901;SDS011;37929;53.218;6.548;2022-10-31T05:37:54;15.70;;;8.88;;
51901;SDS011;37929;53.218;6.548;2022-10-31T05:40:21;14.43;;;8.20;;
51901;SDS011;37929;53.218;6.548;2022-10-31T05:42:50;15.35;;;7.70;;
51901;SDS011;37929;53.218;6.548;2022-10-31T05:45:17;13.57;;;8.55;;
51901;SDS011;37929;53.218;6.548;2022-10-31T05:47:57;14.63;;;8.48;;
51901;SDS011;37929;53.218;6.548;2022-10-31T05:50:27;13.40;;;7.97;;
51901;SDS011;37929;53.218;6.548;2022-10-31T05:52:58;17.40;;;9.38;;
51901;SDS011;37929;53.218;6.548;2022-10-31T05:55:28;12.60;;;7.78;;
51901;SDS011;37929;53.218;6.548;2022-10-31T05:57:55;18.90;;;9.35;;
51901;SDS011;37929;53.218;6.548;2022-10-31T06:00:21;16.08;;;8.45;;
51901;SDS011;37929;53.218;6.548;2022-10-31T06:02:48;16.40;;;8.73;;
51901;SDS011;37929;53.218;6.548;2022-10-31T06:05:13;15.38;;;8.93;;
51901;SDS011;37929;53.218;6.548;2022-10-31T06:07:39;15.93;;;8.70;;
51901;SDS011;37929;53.218;6.548;2022-10-31T06:10:06;15.18;;;8.80;;
51901;SDS011;37929;53.218;6.548;2022-10-31T06:12:33;15.52;;;9.38;;
51901;SDS011;37929;53.218;6.548;2022-10-31T06:15:03;17.30;;;9.23;;
51901;SDS011;37929;53.218;6.548;2022-10-31T06:17:30;16.52;;;9.05;;
51901;SDS011;37929;53.218;6.548;2022-10-31T06:19:56;12.73;;;8.48;;
51901;SDS011;37929;53.218;6.548;2022-10-31T06:22:22;14.23;;;9.43;;
51901;SDS011;37929;53.218;6.548;2022-10-31T06:24:48;16.67;;;8.90;;
51901;SDS011;37929;53.218;6.548;2022-10-31T06:27:13;18.02;;;8.80;;
51901;SDS011;37929;53.218;6.548;2022-10-31T06:29:39;15.93;;;9.57;;
51901;SDS011;37929;53.218;6.548;2022-10-31T06:32:05;15.63;;;9.38;;
51901;SDS011;37929;53.218;6.548;2022-10-31T06:34:31;15.90;;;9.32;;
51901;SDS011;37929;53.218;6.548;2022-10-31T06:36:56;15.30;;;8.98;;
51901;SDS011;37929;53.218;6.548;2022-10-31T06:39:22;14.52;;;9.00;;
51901;SDS011;37929;53.218;6.548;2022-10-31T06:41:48;16.50;;;9.02;;
51901;SDS011;37929;53.218;6.548;2022-10-31T06:44:13;18.80;;;9.07;;
51901;SDS011;37929;53.218;6.548;2022-10-31T06:46:39;13.68;;;8.13;;
51901;SDS011;37929;53.218;6.548;2022-10-31T06:49:05;17.58;;;9.02;;
51901;SDS011;37929;53.218;6.548;2022-10-31T06:51:30;14.15;;;8.40;;
51901;SDS011;37929;53.218;6.548;2022-10-31T06:53:56;13.60;;;8.73;;
51901;SDS011;37929;53.218;6.548;2022-10-31T06:56:22;17.88;;;9.35;;
51901;SDS011;37929;53.218;6.548;2022-10-31T06:58:48;16.83;;;8.55;;
51901;SDS011;37929;53.218;6.548;2022-10-31T07:01:13;15.85;;;8.73;;
51901;SDS011;37929;53.218;6.548;2022-10-31T07:03:39;15.18;;;9.10;;
51901;SDS011;37929;53.218;6.548;2022-10-31T07:06:05;16.83;;;9.02;;
51901;SDS011;37929;53.218;6.548;2022-10-31T07:08:30;16.67;;;9.25;;
51901;SDS011;37929;53.218;6.548;2022-10-31T07:10:56;17.95;;;9.68;;
51901;SDS011;37929;53.218;6.548;2022-10-31T07:13:22;14.27;;;8.55;;
51901;SDS011;37929;53.218;6.548;2022-10-31T07:15:52;14.85;;;8.55;;
51901;SDS011;37929;53.218;6.548;2022-10-31T07:18:19;11.93;;;7.75;;
51901;SDS011;37929;53.218;6.548;2022-10-31T07:20:46;14.75;;;7.60;;
51901;SDS011;37929;53.218;6.548;2022-10-31T07:23:13;15.68;;;8.43;;
51901;SDS011;37929;53.218;6.548;2022-10-31T07:25:39;15.63;;;7.80;;
51901;SDS011;37929;53.218;6.548;2022-10-31T07:28:05;13.85;;;8.95;;
51901;SDS011;37929;53.218;6.548;2022-10-31T07:30:31;13.18;;;7.72;;
51901;SDS011;37929;53.218;6.548;2022-10-31T07:32:57;13.05;;;9.05;;
51901;SDS011;37929;53.218;6.548;2022-10-31T07:35:25;17.95;;;8.57;;
51901;SDS011;37929;53.218;6.548;2022-10-31T07:37:52;15.98;;;9.35;;
51901;SDS011;37929;53.218;6.548;2022-10-31T07:40:19;17.45;;;9.13;;
51901;SDS011;37929;53.218;6.548;2022-10-31T07:42:50;14.95;;;9.68;;
51901;SDS011;37929;53.218;6.548;2022-10-31T07:45:20;16.65;;;9.38;;
51901;SDS011;37929;53.218;6.548;2022-10-31T07:47:47;14.30;;;9.05;;
51901;SDS011;37929;53.218;6.548;2022-10-31T07:50:18;15.15;;;8.85;;
51901;SDS011;37929;53.218;6.548;2022-10-31T07:52:47;16.08;;;9.57;;
51901;SDS011;37929;53.218;6.548;2022-10-31T07:55:13;17.77;;;9.00;;
51901;SDS011;37929;53.218;6.548;2022-10-31T07:57:39;14.82;;;8.95;;
51901;SDS011;37929;53.218;6.548;2022-10-31T08:00:06;16.33;;;9.93;;
51901;SDS011;37929;53.218;6.548;2022-10-31T08:02:34;17.17;;;9.52;;
51901;SDS011;37929;53.218;6.548;2022-10-31T08:04:59;17.05;;;9.05;;
51901;SDS011;37929;53.218;6.548;2022-10-31T08:07:26;16.92;;;9.38;;
51901;SDS011;37929;53.218;6.548;2022-10-31T08:09:53;15.27;;;9.70;;
51901;SDS011;37929;53.218;6.548;2022-10-31T08:12:20;15.55;;;9.20;;
51901;SDS011;37929;53.218;6.548;2022-10-31T08:14:45;15.35;;;9.80;;
51901;SDS011;37929;53.218;6.548;2022-10-31T08:17:12;14.90;;;8.70;;
51901;SDS011;37929;53.218;6.548;2022-10-31T08:19:37;15.57;;;9.07;;
51901;SDS011;37929;53.218;6.548;2022-10-31T08:22:03;15.57;;;9.20;;
51901;SDS011;37929;53.218;6.548;2022-10-31T08:24:29;15.25;;;9.35;;
51901;SDS011;37929;53.218;6.548;2022-10-31T08:26:54;17.02;;;9.85;;
51901;SDS011;37929;53.218;6.548;2022-10-31T08:29:20;13.65;;;8.77;;
51901;SDS011;37929;53.218;6.548;2022-10-31T08:31:46;16.65;;;9.15;;
51901;SDS011;37929;53.218;6.548;2022-10-31T08:34:12;14.75;;;9.13;;
51901;SDS011;37929;53.218;6.548;2022-10-31T08:36:38;14.93;;;8.50;;
51901;SDS011;37929;53.218;6.548;2022-10-31T08:39:03;15.02;;;9.45;;
51901;SDS011;37929;53.218;6.548;2022-10-31T08:41:29;14.32;;;8.63;;
51901;SDS011;37929;53.218;6.548;2022-10-31T08:43:55;12.25;;;8.18;;
51901;SDS011;37929;53.218;6.548;2022-10-31T08:46:21;14.98;;;8.30;;
51901;SDS011;37929;53.218;6.548;2022-10-31T08:48:47;13.68;;;8.88;;
51901;SDS011;37929;53.218;6.548;2022-10-31T08:51:14;12.65;;;8.55;;
51901;SDS011;37929;53.218;6.548;2022-10-31T08:53:39;14.77;;;8.85;;
51901;SDS011;37929;53.218;6.548;2022-10-31T08:56:08;15.65;;;8.90;;
51901;SDS011;37929;53.218;6.548;2022-10-31T08:58:34;12.90;;;8.18;;
51901;SDS011;37929;53.218;6.548;2022-10-31T09:01:00;11.90;;;7.88;;
51901;SDS011;37929;53.218;6.548;2022-10-31T09:03:27;16.02;;;8.02;;
51901;SDS011;37929;53.218;6.548;2022-10-31T09:05:55;14.73;;;9.48;;
51901;SDS011;37929;53.218;6.548;2022-10-31T09:08:22;13.43;;;8.60;;
51901;SDS011;37929;53.218;6.548;2022-10-31T09:10:56;13.43;;;8.32;;
51901;SDS011;37929;53.218;6.548;2022-10-31T09:13:22;13.48;;;8.20;;
51901;SDS011;37929;53.218;6.548;2022-10-31T09:15:48;16.35;;;9.27;;
51901;SDS011;37929;53.218;6.548;2022-10-31T09:18:15;13.40;;;7.85;;
51901;SDS011;37929;53.218;6.548;2022-10-31T09:20:43;14.13;;;7.63;;
51901;SDS011;37929;53.218;6.548;2022-10-31T09:23:11;14.73;;;7.70;;
51901;SDS011;37929;53.218;6.548;2022-10-31T09:25:38;11.90;;;7.32;;
51901;SDS011;37929;53.218;6.548;2022-10-31T09:28:09;11.38;;;7.30;;
51901;SDS011;37929;53.218;6.548;2022-10-31T09:30:37;11.77;;;7.18;;
51901;SDS011;37929;53.218;6.548;2022-10-31T09:33:04;10.27;;;7.15;;
51901;SDS011;37929;53.218;6.548;2022-10-31T09:35:31;13.45;;;7.97;;
51901;SDS011;37929;53.218;6.548;2022-10-31T09:37:58;11.32;;;7.18;;
51901;SDS011;37929;53.218;6.548;2022-10-31T09:40:29;13.88;;;7.35;;
51901;SDS011;37929;53.218;6.548;2022-10-31T09:48:53;13.23;;;7.35;;
51901;SDS011;37929;53.218;6.548;2022-10-31T09:51:22;11.05;;;6.97;;
51901;SDS011;37929;53.218;6.548;2022-10-31T09:56:28;11.73;;;7.05;;
51901;SDS011;37929;53.218;6.548;2022-10-31T09:58:58;11.00;;;7.15;;
51901;SDS011;37929;53.218;6.548;2022-10-31T10:21:21;9.82;;;6.45;;
51901;SDS011;37929;53.218;6.548;2022-10-31T10:29:32;10.18;;;6.38;;
51901;SDS011;37929;53.218;6.548;2022-10-31T10:32:17;10.65;;;6.35;;
51901;SDS011;37929;53.218;6.548;2022-10-31T10:34:50;8.70;;;6.38;;
51901;SDS011;37929;53.218;6.548;2022-10-31T10:39:48;11.63;;;7.15;;
51901;SDS011;37929;53.218;6.548;2022-10-31T10:42:19;10.98;;;7.50;;
51901;SDS011;37929;53.218;6.548;2022-10-31T10:45:13;13.23;;;7.55;;
51901;SDS011;37929;53.218;6.548;2022-10-31T10:48:04;13.90;;;8.18;;
51901;SDS011;37929;53.218;6.548;2022-10-31T10:50:36;11.15;;;7.40;;
51901;SDS011;37929;53.218;6.548;2022-10-31T10:53:25;12.05;;;7.07;;
51901;SDS011;37929;53.218;6.548;2022-10-31T10:58:44;12.25;;;6.97;;
51901;SDS011;37929;53.218;6.548;2022-10-31T11:01:14;13.38;;;7.95;;
51901;SDS011;37929;53.218;6.548;2022-10-31T11:03:40;14.57;;;8.05;;
51901;SDS011;37929;53.218;6.548;2022-10-31T11:06:16;14.70;;;8.52;;
51901;SDS011;37929;53.218;6.548;2022-10-31T11:08:47;14.65;;;7.97;;
51901;SDS011;37929;53.218;6.548;2022-10-31T11:13:42;14.95;;;8.77;;
51901;SDS011;37929;53.218;6.548;2022-10-31T11:16:15;15.38;;;9.73;;
51901;SDS011;37929;53.218;6.548;2022-10-31T11:18:51;12.43;;;8.07;;
51901;SDS011;37929;53.218;6.548;2022-10-31T11:21:23;10.88;;;7.72;;
51901;SDS011;37929;53.218;6.548;2022-10-31T11:26:35;10.82;;;7.35;;
51901;SDS011;37929;53.218;6.548;2022-10-31T11:29:04;11.00;;;6.82;;
51901;SDS011;37929;53.218;6.548;2022-10-31T11:31:36;12.13;;;7.15;;
51901;SDS011;37929;53.218;6.548;2022-10-31T11:34:03;11.15;;;6.78;;
51901;SDS011;37929;53.218;6.548;2022-10-31T11:36:31;11.30;;;6.68;;
51901;SDS011;37929;53.218;6.548;2022-10-31T11:39:04;11.52;;;7.40;;
51901;SDS011;37929;53.218;6.548;2022-10-31T11:41:37;12.32;;;6.95;;
51901;SDS011;37929;53.218;6.548;2022-10-31T11:44:11;10.30;;;7.10;;
51901;SDS011;37929;53.218;6.548;2022-10-31T11:49:34;7.75;;;5.50;;
51901;SDS011;37929;53.218;6.548;2022-10-31T11:52:04;8.60;;;5.80;;
51901;SDS011;37929;53.218;6.548;2022-10-31T11:54:39;9.80;;;5.60;;
51901;SDS011;37929;53.218;6.548;2022-10-31T11:59:51;13.63;;;6.72;;
51901;SDS011;37929;53.218;6.548;2022-10-31T12:02:19;7.32;;;4.55;;
51901;SDS011;37929;53.218;6.548;2022-10-31T12:04:51;7.50;;;4.13;;
51901;SDS011;37929;53.218;6.548;2022-10-31T12:07:25;7.50;;;3.72;;
51901;SDS011;37929;53.218;6.548;2022-10-31T12:09:51;6.82;;;4.25;;
51901;SDS011;37929;53.218;6.548;2022-10-31T12:58:46;8.65;;;3.38;;
51901;SDS011;37929;53.218;6.548;2022-10-31T13:01:21;6.05;;;4.15;;
51901;SDS011;37929;53.218;6.548;2022-10-31T13:06:54;7.13;;;3.92;;
51901;SDS011;37929;53.218;6.548;2022-10-31T13:09:45;7.30;;;4.03;;
51901;SDS011;37929;53.218;6.548;2022-10-31T13:12:19;8.43;;;3.00;;
51901;SDS011;37929;53.218;6.548;2022-10-31T13:14:49;6.40;;;3.30;;
51901;SDS011;37929;53.218;6.548;2022-10-31T13:19:59;5.82;;;3.13;;
51901;SDS011;37929;53.218;6.548;2022-10-31T13:22:37;6.38;;;3.65;;
51901;SDS011;37929;53.218;6.548;2022-10-31T13:27:47;6.27;;;3.83;;
51901;SDS011;37929;53.218;6.548;2022-10-31T13:30:15;5.10;;;2.90;;
51901;SDS011;37929;53.218;6.548;2022-10-31T13:32:45;7.22;;;3.10;;
51901;SDS011;37929;53.218;6.548;2022-10-31T13:35:23;6.18;;;3.05;;
51901;SDS011;37929;53.218;6.548;2022-10-31T13:38:09;5.28;;;3.38;;
51901;SDS011;37929;53.218;6.548;2022-10-31T13:40:50;5.57;;;3.03;;
51901;SDS011;37929;53.218;6.548;2022-10-31T13:46:22;5.45;;;3.13;;
51901;SDS011;37929;53.218;6.548;2022-10-31T13:48:49;6.72;;;3.30;;
51901;SDS011;37929;53.218;6.548;2022-10-31T13:51:23;5.30;;;3.28;;
51901;SDS011;37929;53.218;6.548;2022-10-31T14:04:36;4.00;;;2.60;;
51901;SDS011;37929;53.218;6.548;2022-10-31T14:09:31;5.53;;;2.85;;
51901;SDS011;37929;53.218;6.548;2022-10-31T14:12:04;6.00;;;3.23;;
51901;SDS011;37929;53.218;6.548;2022-10-31T14:14:54;5.43;;;2.85;;
51901;SDS011;37929;53.218;6.548;2022-10-31T14:17:24;5.25;;;2.90;;
51901;SDS011;37929;53.218;6.548;2022-10-31T14:19:59;6.05;;;2.85;;
51901;SDS011;37929;53.218;6.548;2022-10-31T14:22:34;6.18;;;3.45;;
51901;SDS011;37929;53.218;6.548;2022-10-31T14:25:24;4.70;;;3.00;;
51901;SDS011;37929;53.218;6.548;2022-10-31T14:28:00;6.30;;;3.17;;
51901;SDS011;37929;53.218;6.548;2022-10-31T14:30:29;6.97;;;3.50;;
51901;SDS011;37929;53.218;6.548;2022-10-31T14:32:57;7.10;;;3.55;;
51901;SDS011;37929;53.218;6.548;2022-10-31T14:35:29;6.18;;;3.17;;
51901;SDS011;37929;53.218;6.548;2022-10-31T14:41:24;8.88;;;4.22;;
51901;SDS011;37929;53.218;6.548;2022-10-31T14:47:15;7.13;;;3.73;;
51901;SDS011;37929;53.218;6.548;2022-10-31T14:52:40;7.22;;;3.78;;
51901;SDS011;37929;53.218;6.548;2022-10-31T14:55:14;6.72;;;3.45;;
51901;SDS011;37929;53.218;6.548;2022-10-31T14:57:47;7.53;;;4.10;;
51901;SDS011;37929;53.218;6.548;2022-10-31T15:00:21;7.93;;;4.07;;
51901;SDS011;37929;53.218;6.548;2022-10-31T15:05:46;7.38;;;4.20;;
51901;SDS011;37929;53.218;6.548;2022-10-31T15:08:26;6.68;;;3.33;;
51901;SDS011;37929;53.218;6.548;2022-10-31T15:10:55;7.30;;;3.65;;
51901;SDS011;37929;53.218;6.548;2022-10-31T15:13:21;5.88;;;3.78;;
51901;SDS011;37929;53.218;6.548;2022-10-31T15:15:48;6.05;;;3.70;;
51901;SDS011;37929;53.218;6.548;2022-10-31T15:18:26;8.45;;;3.97;;
51901;SDS011;37929;53.218;6.548;2022-10-31T15:20:54;6.78;;;3.70;;
51901;SDS011;37929;53.218;6.548;2022-10-31T15:23:40;7.43;;;4.15;;
51901;SDS011;37929;53.218;6.548;2022-10-31T15:26:11;5.95;;;3.28;;
51901;SDS011;37929;53.218;6.548;2022-10-31T15:28:42;5.85;;;3.60;;
51901;SDS011;37929;53.218;6.548;2022-10-31T15:31:17;5.43;;;3.55;;
51901;SDS011;37929;53.218;6.548;2022-10-31T15:33:45;10.00;;;4.22;;
51901;SDS011;37929;53.218;6.548;2022-10-31T15:36:24;7.22;;;3.65;;
51901;SDS011;37929;53.218;6.548;2022-10-31T15:38:51;6.88;;;4.40;;
51901;SDS011;37929;53.218;6.548;2022-10-31T15:41:37;10.55;;;4.80;;
51901;SDS011;37929;53.218;6.548;2022-10-31T15:44:19;6.70;;;4.60;;
51901;SDS011;37929;53.218;6.548;2022-10-31T15:47:03;7.80;;;4.68;;
51901;SDS011;37929;53.218;6.548;2022-10-31T15:49:49;7.00;;;4.47;;
51901;SDS011;37929;53.218;6.548;2022-10-31T15:57:39;8.43;;;4.60;;
51901;SDS011;37929;53.218;6.548;2022-10-31T16:00:47;8.23;;;5.63;;
51901;SDS011;37929;53.218;6.548;2022-10-31T16:05:45;10.43;;;5.72;;
51901;SDS011;37929;53.218;6.548;2022-10-31T16:11:20;8.98;;;5.90;;
51901;SDS011;37929;53.218;6.548;2022-10-31T16:16:30;8.43;;;5.70;;
51901;SDS011;37929;53.218;6.548;2022-10-31T16:18:58;10.00;;;5.10;;
51901;SDS011;37929;53.218;6.548;2022-10-31T16:21:33;7.95;;;5.28;;
51901;SDS011;37929;53.218;6.548;2022-10-31T16:24:05;10.70;;;6.10;;
51901;SDS011;37929;53.218;6.548;2022-10-31T16:27:03;12.32;;;5.88;;
51901;SDS011;37929;53.218;6.548;2022-10-31T16:29:36;8.45;;;5.93;;
51901;SDS011;37929;53.218;6.548;2022-10-31T16:32:22;9.27;;;5.68;;
51901;SDS011;37929;53.218;6.548;2022-10-31T16:37:42;9.30;;;5.60;;
51901;SDS011;37929;53.218;6.548;2022-10-31T16:40:12;12.00;;;6.72;;
51901;SDS011;37929;53.218;6.548;2022-10-31T16:42:38;9.55;;;5.57;;
51901;SDS011;37929;53.218;6.548;2022-10-31T16:45:05;9.30;;;5.80;;
51901;SDS011;37929;53.218;6.548;2022-10-31T16:47:33;10.07;;;5.93;;
51901;SDS011;37929;53.218;6.548;2022-10-31T16:49:58;9.90;;;5.60;;
51901;SDS011;37929;53.218;6.548;2022-10-31T16:52:25;7.93;;;5.93;;
51901;SDS011;37929;53.218;6.548;2022-10-31T16:54:51;9.80;;;5.47;;
51901;SDS011;37929;53.218;6.548;2022-10-31T16:57:18;8.40;;;5.03;;
51901;SDS011;37929;53.218;6.548;2022-10-31T16:59:54;8.90;;;5.05;;
51901;SDS011;37929;53.218;6.548;2022-10-31T17:02:21;7.75;;;5.15;;
51901;SDS011;37929;53.218;6.548;2022-10-31T17:04:47;7.63;;;4.60;;
51901;SDS011;37929;53.218;6.548;2022-10-31T17:07:12;8.52;;;5.40;;
51901;SDS011;37929;53.218;6.548;2022-10-31T17:09:38;9.45;;;5.15;;
51901;SDS011;37929;53.218;6.548;2022-10-31T17:12:05;8.35;;;5.15;;
51901;SDS011;37929;53.218;6.548;2022-10-31T17:14:38;9.23;;;5.10;;
51901;SDS011;37929;53.218;6.548;2022-10-31T17:17:03;8.32;;;5.50;;
51901;SDS011;37929;53.218;6.548;2022-10-31T17:19:29;10.13;;;5.63;;
51901;SDS011;37929;53.218;6.548;2022-10-31T17:21:55;9.40;;;5.63;;
51901;SDS011;37929;53.218;6.548;2022-10-31T17:24:20;9.73;;;6.32;;
51901;SDS011;37929;53.218;6.548;2022-10-31T17:26:46;12.10;;;6.38;;
51901;SDS011;37929;53.218;6.548;2022-10-31T17:29:12;10.75;;;5.85;;
51901;SDS011;37929;53.218;6.548;2022-10-31T17:31:39;10.25;;;5.88;;
51901;SDS011;37929;53.218;6.548;2022-10-31T17:34:06;9.57;;;6.45;;
51901;SDS011;37929;53.218;6.548;2022-10-31T17:36:33;11.75;;;7.13;;
51901;SDS011;37929;53.218;6.548;2022-10-31T17:38:59;14.15;;;7.97;;
51901;SDS011;37929;53.218;6.548;2022-10-31T17:41:27;9.95;;;6.97;;
51901;SDS011;37929;53.218;6.548;2022-10-31T17:43:56;11.07;;;7.10;;
51901;SDS011;37929;53.218;6.548;2022-10-31T17:46:23;13.32;;;8.23;;
51901;SDS011;37929;53.218;6.548;2022-10-31T17:48:49;25.30;;;15.00;;
51901;SDS011;37929;53.218;6.548;2022-10-31T17:51:15;23.42;;;14.38;;
51901;SDS011;37929;53.218;6.548;2022-10-31T17:53:41;15.10;;;8.63;;
51901;SDS011;37929;53.218;6.548;2022-10-31T17:56:08;14.43;;;9.25;;
51901;SDS011;37929;53.218;6.548;2022-10-31T17:58:34;13.98;;;8.70;;